sensor_id;sensor_type;location;lat;lon;timestamp;pressure;altitude;pressure_sealevel;temperature;humidity
3150;BME280;32503;47.748;8.960;2023-04-25T00:02:14;96379.19;;;11.38;53.64
3150;BME280;32503;47.748;8.960;2023-04-25T00:04:42;96373.78;;;11.38;53.89
3150;BME280;32503;47.748;8.960;2023-04-25T00:07:10;96366.78;;;11.37;53.49
3150;BME280;32503;47.748;8.960;2023-04-25T00:09:37;96362.16;;;11.38;53.47
3150;BME280;32503;47.748;8.960;2023-04-25T00:12:05;96372.25;;;11.41;54.04
3150;BME280;32503;47.748;8.960;2023-04-25T00:14:32;96366.84;;;11.45;54.47
3150;BME280;32503;47.748;8.960;2023-04-25T00:17:01;96369.97;;;11.47;54.90
3150;BME280;32503;47.748;8.960;2023-04-25T00:19:30;96356.38;;;11.39;55.52
3150;BME280;32503;47.748;8.960;2023-04-25T00:21:59;96358.34;;;11.43;55.38
3150;BME280;32503;47.748;8.960;2023-04-25T00:24:26;96364.16;;;11.45;55.00
3150;BME280;32503;47.748;8.960;2023-04-25T00:26:53;96363.34;;;11.41;54.87
3150;BME280;32503;47.748;8.960;2023-04-25T00:29:20;96355.97;;;11.37;55.20
3150;BME280;32503;47.748;8.960;2023-04-25T00:31:51;96351.28;;;11.34;55.11
3150;BME280;32503;47.748;8.960;2023-04-25T00:34:18;96353.22;;;11.34;55.79
3150;BME280;32503;47.748;8.960;2023-04-25T00:36:45;96354.34;;;11.33;54.88
3150;BME280;32503;47.748;8.960;2023-04-25T00:39:13;96349.38;;;11.35;55.74
3150;BME280;32503;47.748;8.960;2023-04-25T00:41:40;96340.47;;;11.34;55.62
3150;BME280;32503;47.748;8.960;2023-04-25T00:44:09;96334.28;;;11.34;55.78
3150;BME280;32503;47.748;8.960;2023-04-25T00:46:37;96340.47;;;11.34;55.39
3150;BME280;32503;47.748;8.960;2023-04-25T00:49:05;96342.03;;;11.35;55.38
3150;BME280;32503;47.748;8.960;2023-04-25T00:51:33;96340.47;;;11.34;55.77
3150;BME280;32503;47.748;8.960;2023-04-25T00:54:00;96336.94;;;11.30;56.45
3150;BME280;32503;47.748;8.960;2023-04-25T00:56:29;96344.25;;;11.26;56.69
3150;BME280;32503;47.748;8.960;2023-04-25T00:58:56;96340.75;;;11.26;56.85
3150;BME280;32503;47.748;8.960;2023-04-25T01:01:24;96336.50;;;11.25;57.56
3150;BME280;32503;47.748;8.960;2023-04-25T01:03:51;96333.84;;;11.28;56.85
3150;BME280;32503;47.748;8.960;2023-04-25T01:06:20;96337.28;;;11.25;57.97
3150;BME280;32503;47.748;8.960;2023-04-25T01:08:48;96337.25;;;11.22;58.41
3150;BME280;32503;47.748;8.960;2023-04-25T01:11:15;96334.13;;;11.19;58.43
3150;BME280;32503;47.748;8.960;2023-04-25T01:13:43;96345.63;;;11.09;59.54
3150;BME280;32503;47.748;8.960;2023-04-25T01:16:10;96336.38;;;11.10;60.78
3150;BME280;32503;47.748;8.960;2023-04-25T01:18:39;96337.13;;;11.11;59.13
3150;BME280;32503;47.748;8.960;2023-04-25T01:21:09;96335.56;;;11.10;58.49
3150;BME280;32503;47.748;8.960;2023-04-25T01:23:37;96309.97;;;11.00;58.51
3150;BME280;32503;47.748;8.960;2023-04-25T01:26:06;96327.97;;;11.19;58.80
3150;BME280;32503;47.748;8.960;2023-04-25T01:28:33;96326.38;;;11.18;59.88
3150;BME280;32503;47.748;8.960;2023-04-25T01:31:01;96315.91;;;11.13;59.67
3150;BME280;32503;47.748;8.960;2023-04-25T01:33:29;96326.00;;;11.16;60.42
3150;BME280;32503;47.748;8.960;2023-04-25T01:35:57;96326.31;;;11.11;61.01
3150;BME280;32503;47.748;8.960;2023-04-25T01:38:25;96310.44;;;11.09;61.24
3150;BME280;32503;47.748;8.960;2023-04-25T01:40:54;96293.03;;;11.03;60.39
3150;BME280;32503;47.748;8.960;2023-04-25T01:43:21;96314.75;;;11.14;60.77
3150;BME280;32503;47.748;8.960;2023-04-25T01:45:49;96296.91;;;11.06;60.65
3150;BME280;32503;47.748;8.960;2023-04-25T01:48:17;96254.88;;;10.78;61.15
3150;BME280;32503;47.748;8.960;2023-04-25T01:50:44;96308.47;;;11.06;62.13
3150;BME280;32503;47.748;8.960;2023-04-25T01:53:13;96306.91;;;11.02;62.05
3150;BME280;32503;47.748;8.960;2023-04-25T01:55:42;96310.75;;;11.00;62.32
3150;BME280;32503;47.748;8.960;2023-04-25T01:58:09;96302.97;;;10.95;62.40
3150;BME280;32503;47.748;8.960;2023-04-25T02:00:38;96306.00;;;10.90;62.36
3150;BME280;32503;47.748;8.960;2023-04-25T02:03:06;96307.50;;;10.84;62.11
3150;BME280;32503;47.748;8.960;2023-04-25T02:05:35;96300.03;;;10.74;61.86
3150;BME280;32503;47.748;8.960;2023-04-25T02:08:10;96301.97;;;10.73;62.03
3150;BME280;32503;47.748;8.960;2023-04-25T02:10:41;96293.81;;;10.70;62.12
3150;BME280;32503;47.748;8.960;2023-04-25T02:13:08;96294.91;;;10.65;61.97
3150;BME280;32503;47.748;8.960;2023-04-25T02:15:35;96296.38;;;10.59;62.68
3150;BME280;32503;47.748;8.960;2023-04-25T02:18:03;96297.47;;;10.54;62.38
3150;BME280;32503;47.748;8.960;2023-04-25T02:20:32;96286.94;;;10.46;62.74
3150;BME280;32503;47.748;8.960;2023-04-25T02:22:59;96292.41;;;10.49;62.74
3150;BME280;32503;47.748;8.960;2023-04-25T02:25:27;96290.81;;;10.48;62.35
3150;BME280;32503;47.748;8.960;2023-04-25T02:27:58;96227.41;;;10.08;62.09
3150;BME280;32503;47.748;8.960;2023-04-25T02:30:25;96286.53;;;10.43;62.71
3150;BME280;32503;47.748;8.960;2023-04-25T02:32:52;96275.69;;;10.40;61.63
3150;BME280;32503;47.748;8.960;2023-04-25T02:35:19;96290.31;;;10.39;62.32
3150;BME280;32503;47.748;8.960;2023-04-25T02:37:46;96288.03;;;10.41;62.22
3150;BME280;32503;47.748;8.960;2023-04-25T02:40:13;96291.50;;;10.38;62.32
3150;BME280;32503;47.748;8.960;2023-04-25T02:42:41;96281.50;;;10.42;63.16
3150;BME280;32503;47.748;8.960;2023-04-25T02:45:10;96291.81;;;10.33;63.17
3150;BME280;32503;47.748;8.960;2023-04-25T02:47:37;96297.09;;;10.25;63.68
3150;BME280;32503;47.748;8.960;2023-04-25T02:50:06;96299.00;;;10.25;63.48
3150;BME280;32503;47.748;8.960;2023-04-25T02:52:33;96289.41;;;10.01;64.16
3150;BME280;32503;47.748;8.960;2023-04-25T02:55:01;96302.91;;;10.01;64.22
3150;BME280;32503;47.748;8.960;2023-04-25T02:57:28;96301.00;;;10.01;63.87
3150;BME280;32503;47.748;8.960;2023-04-25T02:59:55;96294.47;;;10.02;64.45
3150;BME280;32503;47.748;8.960;2023-04-25T03:02:23;96292.53;;;10.03;64.44
3150;BME280;32503;47.748;8.960;2023-04-25T03:04:50;96279.34;;;9.98;63.88
3150;BME280;32503;47.748;8.960;2023-04-25T03:07:17;96289.06;;;10.02;64.41
3150;BME280;32503;47.748;8.960;2023-04-25T03:09:44;96280.22;;;10.05;64.43
3150;BME280;32503;47.748;8.960;2023-04-25T03:12:11;96286.88;;;10.12;64.51
3150;BME280;32503;47.748;8.960;2023-04-25T03:14:38;96282.53;;;10.07;63.84
3150;BME280;32503;47.748;8.960;2023-04-25T03:17:05;96286.78;;;10.04;64.36
3150;BME280;32503;47.748;8.960;2023-04-25T03:19:34;96288.66;;;10.04;64.05
3150;BME280;32503;47.748;8.960;2023-04-25T03:22:01;96287.06;;;9.99;64.05
3150;BME280;32503;47.748;8.960;2023-04-25T03:24:28;96298.25;;;9.98;63.85
3150;BME280;32503;47.748;8.960;2023-04-25T03:26:55;96293.19;;;9.96;63.68
3150;BME280;32503;47.748;8.960;2023-04-25T03:29:25;96286.97;;;9.92;64.00
3150;BME280;32503;47.748;8.960;2023-04-25T03:31:53;96287.19;;;9.80;63.92
3150;BME280;32503;47.748;8.960;2023-04-25T03:34:20;96288.16;;;9.68;64.52
3150;BME280;32503;47.748;8.960;2023-04-25T03:36:49;96281.94;;;9.64;64.18
3150;BME280;32503;47.748;8.960;2023-04-25T03:39:16;96274.03;;;9.52;64.55
3150;BME280;32503;47.748;8.960;2023-04-25T03:41:43;96278.38;;;9.60;64.02
3150;BME280;32503;47.748;8.960;2023-04-25T03:44:10;96273.22;;;9.51;64.31
3150;BME280;32503;47.748;8.960;2023-04-25T03:46:37;96280.19;;;9.52;64.19
3150;BME280;32503;47.748;8.960;2023-04-25T03:49:04;96280.53;;;9.51;64.00
3150;BME280;32503;47.748;8.960;2023-04-25T03:51:31;96283.91;;;9.44;64.26
3150;BME280;32503;47.748;8.960;2023-04-25T03:53:59;96281.84;;;9.34;64.78
3150;BME280;32503;47.748;8.960;2023-04-25T03:56:26;96281.31;;;9.28;64.90
3150;BME280;32503;47.748;8.960;2023-04-25T03:58:53;96269.53;;;9.13;65.19
3150;BME280;32503;47.748;8.960;2023-04-25T04:01:20;96276.91;;;9.16;65.22
3150;BME280;32503;47.748;8.960;2023-04-25T04:03:47;96277.19;;;9.11;65.24
3150;BME280;32503;47.748;8.960;2023-04-25T04:06:15;96272.47;;;9.04;65.53
3150;BME280;32503;47.748;8.960;2023-04-25T04:08:42;96271.75;;;9.07;65.05
3150;BME280;32503;47.748;8.960;2023-04-25T04:11:10;96269.75;;;9.04;65.10
3150;BME280;32503;47.748;8.960;2023-04-25T04:13:37;96273.16;;;9.01;64.85
3150;BME280;32503;47.748;8.960;2023-04-25T04:16:05;96264.94;;;8.94;65.40
3150;BME280;32503;47.748;8.960;2023-04-25T04:18:32;96266.09;;;8.93;65.43
3150;BME280;32503;47.748;8.960;2023-04-25T04:20:59;96253.75;;;8.92;65.53
3150;BME280;32503;47.748;8.960;2023-04-25T04:23:26;96262.66;;;8.96;65.20
3150;BME280;32503;47.748;8.960;2023-04-25T04:25:54;96258.44;;;8.95;65.22
3150;BME280;32503;47.748;8.960;2023-04-25T04:28:23;96254.53;;;8.92;65.40
3150;BME280;32503;47.748;8.960;2023-04-25T04:30:51;96245.66;;;8.92;65.42
3150;BME280;32503;47.748;8.960;2023-04-25T04:33:18;96257.00;;;9.01;65.38
3150;BME280;32503;47.748;8.960;2023-04-25T04:35:45;96256.69;;;9.06;65.04
3150;BME280;32503;47.748;8.960;2023-04-25T04:38:14;96254.84;;;9.10;65.02
3150;BME280;32503;47.748;8.960;2023-04-25T04:40:41;96261.09;;;9.15;65.32
3150;BME280;32503;47.748;8.960;2023-04-25T04:43:09;96261.31;;;9.29;65.17
3150;BME280;32503;47.748;8.960;2023-04-25T04:45:38;96258.44;;;9.41;65.15
3150;BME280;32503;47.748;8.960;2023-04-25T04:48:06;96248.59;;;9.53;64.99
3150;BME280;32503;47.748;8.960;2023-04-25T04:50:33;96260.91;;;9.77;64.62
3150;BME280;32503;47.748;8.960;2023-04-25T04:53:03;96258.47;;;9.95;64.44
3150;BME280;32503;47.748;8.960;2023-04-25T04:55:31;96254.09;;;10.13;64.04
3150;BME280;32503;47.748;8.960;2023-04-25T04:57:58;96256.03;;;10.16;63.67
3150;BME280;32503;47.748;8.960;2023-04-25T05:00:25;96255.28;;;10.16;63.67
3150;BME280;32503;47.748;8.960;2023-04-25T05:02:54;96251.16;;;10.25;63.82
3150;BME280;32503;47.748;8.960;2023-04-25T05:05:22;96249.16;;;10.19;63.85
3150;BME280;32503;47.748;8.960;2023-04-25T05:07:49;96264.91;;;10.13;63.99
3150;BME280;32503;47.748;8.960;2023-04-25T05:10:17;96257.09;;;10.08;63.53
3150;BME280;32503;47.748;8.960;2023-04-25T05:12:44;96265.53;;;10.03;64.06
3150;BME280;32503;47.748;8.960;2023-04-25T05:15:11;96262.78;;;9.99;64.16
3150;BME280;32503;47.748;8.960;2023-04-25T05:17:38;96263.50;;;9.96;64.48
3150;BME280;32503;47.748;8.960;2023-04-25T05:20:08;96265.84;;;9.98;64.10
3150;BME280;32503;47.748;8.960;2023-04-25T05:22:35;96261.66;;;10.04;63.60
3150;BME280;32503;47.748;8.960;2023-04-25T05:25:03;96254.00;;;10.06;63.91
3150;BME280;32503;47.748;8.960;2023-04-25T05:27:31;96264.09;;;10.13;64.16
3150;BME280;32503;47.748;8.960;2023-04-25T05:29:58;96254.91;;;10.17;64.21
3150;BME280;32503;47.748;8.960;2023-04-25T05:32:25;96262.50;;;10.35;63.58
3150;BME280;32503;47.748;8.960;2023-04-25T05:34:52;96258.84;;;10.50;63.88
3150;BME280;32503;47.748;8.960;2023-04-25T05:37:21;96264.88;;;10.74;63.44
3150;BME280;32503;47.748;8.960;2023-04-25T05:39:48;96266.78;;;11.07;63.30
3150;BME280;32503;47.748;8.960;2023-04-25T05:42:15;96260.78;;;11.28;62.48
3150;BME280;32503;47.748;8.960;2023-04-25T05:44:42;96261.25;;;11.37;61.86
3150;BME280;32503;47.748;8.960;2023-04-25T05:47:09;96258.16;;;11.39;61.41
3150;BME280;32503;47.748;8.960;2023-04-25T05:49:36;96264.75;;;11.42;62.00
3150;BME280;32503;47.748;8.960;2023-04-25T05:52:03;96251.25;;;11.45;61.51
3150;BME280;32503;47.748;8.960;2023-04-25T05:54:31;96256.31;;;11.50;60.92
3150;BME280;32503;47.748;8.960;2023-04-25T05:56:59;96255.59;;;11.57;61.26
3150;BME280;32503;47.748;8.960;2023-04-25T05:59:26;96244.41;;;11.58;60.33
3150;BME280;32503;47.748;8.960;2023-04-25T06:01:53;96255.78;;;11.82;59.41
3150;BME280;32503;47.748;8.960;2023-04-25T06:04:20;96255.50;;;11.94;59.91
3150;BME280;32503;47.748;8.960;2023-04-25T06:06:47;96259.88;;;12.13;59.80
3150;BME280;32503;47.748;8.960;2023-04-25T06:09:14;96259.19;;;12.31;58.94
3150;BME280;32503;47.748;8.960;2023-04-25T06:11:43;96262.78;;;12.49;57.98
3150;BME280;32503;47.748;8.960;2023-04-25T06:14:10;96264.75;;;12.63;57.59
3150;BME280;32503;47.748;8.960;2023-04-25T06:16:37;96256.25;;;12.72;57.24
3150;BME280;32503;47.748;8.960;2023-04-25T06:19:04;96259.38;;;12.74;56.17
3150;BME280;32503;47.748;8.960;2023-04-25T06:21:31;96253.97;;;12.81;55.80
3150;BME280;32503;47.748;8.960;2023-04-25T06:23:58;96249.31;;;12.82;55.19
3150;BME280;32503;47.748;8.960;2023-04-25T06:26:25;96255.50;;;12.82;55.64
3150;BME280;32503;47.748;8.960;2023-04-25T06:28:53;96246.97;;;12.77;55.65
3150;BME280;32503;47.748;8.960;2023-04-25T06:31:20;96247.72;;;12.74;55.40
3150;BME280;32503;47.748;8.960;2023-04-25T06:33:47;96237.22;;;12.58;55.55
3150;BME280;32503;47.748;8.960;2023-04-25T06:36:15;96246.91;;;12.59;55.55
3150;BME280;32503;47.748;8.960;2023-04-25T06:38:42;96243.41;;;12.55;55.14
3150;BME280;32503;47.748;8.960;2023-04-25T06:41:09;96250.00;;;12.54;55.24
3150;BME280;32503;47.748;8.960;2023-04-25T06:43:36;96232.53;;;12.47;55.09
3150;BME280;32503;47.748;8.960;2023-04-25T06:46:04;96252.34;;;12.55;55.48
3150;BME280;32503;47.748;8.960;2023-04-25T06:48:31;96252.31;;;12.51;55.97
3150;BME280;32503;47.748;8.960;2023-04-25T06:50:58;96251.50;;;12.47;55.51
3150;BME280;32503;47.748;8.960;2023-04-25T06:53:25;96250.31;;;12.38;55.00
3150;BME280;32503;47.748;8.960;2023-04-25T06:55:52;96258.44;;;12.34;55.31
3150;BME280;32503;47.748;8.960;2023-04-25T06:58:19;96262.66;;;12.28;56.58
3150;BME280;32503;47.748;8.960;2023-04-25T07:00:46;96262.63;;;12.24;56.68
3150;BME280;32503;47.748;8.960;2023-04-25T07:03:15;96270.34;;;12.15;58.04
3150;BME280;32503;47.748;8.960;2023-04-25T07:05:42;96268.66;;;11.96;59.32
3150;BME280;32503;47.748;8.960;2023-04-25T07:08:09;96290.69;;;11.91;60.78
3150;BME280;32503;47.748;8.960;2023-04-25T07:10:36;96295.22;;;11.80;60.48
3150;BME280;32503;47.748;8.960;2023-04-25T07:13:03;96296.06;;;11.39;61.38
3150;BME280;32503;47.748;8.960;2023-04-25T07:15:30;96301.78;;;11.30;61.30
3150;BME280;32503;47.748;8.960;2023-04-25T07:17:57;96309.97;;;11.00;61.49
3150;BME280;32503;47.748;8.960;2023-04-25T07:20:26;96315.19;;;10.82;62.28
3150;BME280;32503;47.748;8.960;2023-04-25T07:22:53;96313.69;;;10.54;62.11
3150;BME280;32503;47.748;8.960;2023-04-25T07:25:20;96317.44;;;10.46;62.60
3150;BME280;32503;47.748;8.960;2023-04-25T07:27:47;96309.78;;;10.25;63.72
3150;BME280;32503;47.748;8.960;2023-04-25T07:30:15;96328.50;;;10.11;64.03
3150;BME280;32503;47.748;8.960;2023-04-25T07:32:42;96326.47;;;10.04;64.34
3150;BME280;32503;47.748;8.960;2023-04-25T07:35:09;96320.97;;;9.97;64.41
3150;BME280;32503;47.748;8.960;2023-04-25T07:37:37;96321.81;;;10.01;64.61
3150;BME280;32503;47.748;8.960;2023-04-25T07:40:06;96321.66;;;9.90;64.67
3150;BME280;32503;47.748;8.960;2023-04-25T07:42:35;96330.94;;;9.93;64.64
3150;BME280;32503;47.748;8.960;2023-04-25T07:45:02;96326.25;;;9.90;64.36
3150;BME280;32503;47.748;8.960;2023-04-25T07:47:29;96321.56;;;9.83;64.77
3150;BME280;32503;47.748;8.960;2023-04-25T07:49:56;96325.75;;;9.80;65.78
3150;BME280;32503;47.748;8.960;2023-04-25T07:52:24;96324.25;;;9.83;65.45
3150;BME280;32503;47.748;8.960;2023-04-25T07:54:53;96331.16;;;9.80;65.47
3150;BME280;32503;47.748;8.960;2023-04-25T07:57:20;96302.78;;;9.67;65.85
3150;BME280;32503;47.748;8.960;2023-04-25T07:59:47;96335.34;;;9.78;66.08
3150;BME280;32503;47.748;8.960;2023-04-25T08:02:14;96337.63;;;9.76;65.39
3150;BME280;32503;47.748;8.960;2023-04-25T08:04:42;96334.16;;;9.75;65.85
3150;BME280;32503;47.748;8.960;2023-04-25T08:07:09;96333.72;;;9.73;65.80
3150;BME280;32503;47.748;8.960;2023-04-25T08:09:36;96336.13;;;9.78;66.34
3150;BME280;32503;47.748;8.960;2023-04-25T08:12:05;96345.84;;;9.83;66.20
3150;BME280;32503;47.748;8.960;2023-04-25T08:14:32;96344.03;;;9.91;65.81
3150;BME280;32503;47.748;8.960;2023-04-25T08:17:01;96348.72;;;9.94;66.19
3150;BME280;32503;47.748;8.960;2023-04-25T08:19:29;96352.97;;;9.95;65.87
3150;BME280;32503;47.748;8.960;2023-04-25T08:21:58;96354.13;;;9.94;65.52
3150;BME280;32503;47.748;8.960;2023-04-25T08:24:25;96352.66;;;10.00;66.04
3150;BME280;32503;47.748;8.960;2023-04-25T08:26:52;96351.22;;;10.06;65.96
3150;BME280;32503;47.748;8.960;2023-04-25T08:29:21;96356.63;;;10.06;65.58
3150;BME280;32503;47.748;8.960;2023-04-25T08:31:49;96358.47;;;10.02;66.13
3150;BME280;32503;47.748;8.960;2023-04-25T08:34:18;96362.13;;;10.13;65.42
3150;BME280;32503;47.748;8.960;2023-04-25T08:36:45;96362.13;;;10.13;66.52
3150;BME280;32503;47.748;8.960;2023-04-25T08:39:12;96375.28;;;10.15;66.93
3150;BME280;32503;47.748;8.960;2023-04-25T08:41:40;96363.66;;;10.14;66.14
3150;BME280;32503;47.748;8.960;2023-04-25T08:44:11;96375.44;;;10.25;66.51
3150;BME280;32503;47.748;8.960;2023-04-25T08:46:40;96382.16;;;10.35;66.30
3150;BME280;32503;47.748;8.960;2023-04-25T08:49:08;96335.44;;;10.08;66.49
3150;BME280;32503;47.748;8.960;2023-04-25T08:51:45;96388.84;;;10.45;65.80
3150;BME280;32503;47.748;8.960;2023-04-25T08:54:14;96394.69;;;10.47;66.35
3150;BME280;32503;47.748;8.960;2023-04-25T08:56:44;96390.44;;;10.50;66.54
3150;BME280;32503;47.748;8.960;2023-04-25T08:59:12;96400.69;;;10.63;66.71
3150;BME280;32503;47.748;8.960;2023-04-25T09:01:40;96402.81;;;10.77;65.78
3150;BME280;32503;47.748;8.960;2023-04-25T09:04:07;96398.59;;;10.80;66.07
3150;BME280;32503;47.748;8.960;2023-04-25T09:06:35;96412.97;;;10.88;66.20
3150;BME280;32503;47.748;8.960;2023-04-25T09:09:04;96415.06;;;10.98;66.71
3150;BME280;32503;47.748;8.960;2023-04-25T09:11:32;96398.94;;;11.09;66.02
3150;BME280;32503;47.748;8.960;2023-04-25T09:14:14;96417.75;;;11.32;64.73
3150;BME280;32503;47.748;8.960;2023-04-25T09:17:01;96418.69;;;11.47;65.19
3150;BME280;32503;47.748;8.960;2023-04-25T09:19:30;96408.28;;;11.49;65.05
3150;BME280;32503;47.748;8.960;2023-04-25T09:21:59;96421.28;;;11.73;64.37
3150;BME280;32503;47.748;8.960;2023-04-25T09:24:33;96427.97;;;11.83;64.57
3150;BME280;32503;47.748;8.960;2023-04-25T09:27:04;96433.09;;;11.92;64.49
3150;BME280;32503;47.748;8.960;2023-04-25T09:29:33;96428.50;;;12.00;63.79
3150;BME280;32503;47.748;8.960;2023-04-25T09:32:17;96410.59;;;11.88;63.45
3150;BME280;32503;47.748;8.960;2023-04-25T09:34:46;96414.84;;;11.89;63.54
3150;BME280;32503;47.748;8.960;2023-04-25T09:37:18;96429.44;;;12.14;62.76
3150;BME280;32503;47.748;8.960;2023-04-25T09:39:47;96402.38;;;12.22;62.88
3150;BME280;32503;47.748;8.960;2023-04-25T09:42:14;96440.94;;;12.52;61.58
3150;BME280;32503;47.748;8.960;2023-04-25T09:44:44;96433.44;;;12.35;60.15
3150;BME280;32503;47.748;8.960;2023-04-25T09:47:14;96422.91;;;12.23;61.17
3150;BME280;32503;47.748;8.960;2023-04-25T09:49:43;96445.53;;;12.45;60.36
3150;BME280;32503;47.748;8.960;2023-04-25T09:52:15;96437.47;;;12.56;60.09
3150;BME280;32503;47.748;8.960;2023-04-25T09:54:43;96422.34;;;12.55;60.03
3150;BME280;32503;47.748;8.960;2023-04-25T09:57:13;96446.03;;;12.65;59.79
3150;BME280;32503;47.748;8.960;2023-04-25T09:59:45;96440.69;;;12.79;60.02
3150;BME280;32503;47.748;8.960;2023-04-25T10:02:16;96440.84;;;13.01;59.45
3150;BME280;32503;47.748;8.960;2023-04-25T10:04:47;96437.22;;;13.70;70.18
3150;BME280;32503;47.748;8.960;2023-04-25T10:07:14;96428.75;;;14.00;62.37
3150;BME280;32503;47.748;8.960;2023-04-25T10:09:42;96440.41;;;14.48;56.70
3150;BME280;32503;47.748;8.960;2023-04-25T10:12:11;96437.31;;;14.38;54.85
3150;BME280;32503;47.748;8.960;2023-04-25T10:14:38;96430.31;;;14.16;55.34
3150;BME280;32503;47.748;8.960;2023-04-25T10:17:06;96435.28;;;13.71;55.14
3150;BME280;32503;47.748;8.960;2023-04-25T10:19:35;96439.56;;;13.64;56.20
3150;BME280;32503;47.748;8.960;2023-04-25T10:22:07;96409.22;;;13.44;56.78
3150;BME280;32503;47.748;8.960;2023-04-25T10:24:35;96404.91;;;13.25;56.30
3150;BME280;32503;47.748;8.960;2023-04-25T10:27:03;96437.19;;;13.52;56.63
3150;BME280;32503;47.748;8.960;2023-04-25T10:29:31;96437.97;;;13.56;56.76
3150;BME280;32503;47.748;8.960;2023-04-25T10:31:58;96425.94;;;13.50;56.36
3150;BME280;32503;47.748;8.960;2023-04-25T10:34:40;96446.13;;;13.63;56.57
3150;BME280;32503;47.748;8.960;2023-04-25T10:37:09;96432.53;;;13.56;57.34
3150;BME280;32503;47.748;8.960;2023-04-25T10:39:39;96443.88;;;14.01;56.74
3150;BME280;32503;47.748;8.960;2023-04-25T10:42:07;96445.84;;;14.33;55.06
3150;BME280;32503;47.748;8.960;2023-04-25T10:44:37;96416.69;;;14.48;53.96
3150;BME280;32503;47.748;8.960;2023-04-25T10:47:07;96427.53;;;14.95;52.81
3150;BME280;32503;47.748;8.960;2023-04-25T10:49:38;96436.34;;;15.24;52.53
3150;BME280;32503;47.748;8.960;2023-04-25T10:52:19;96440.69;;;15.14;48.87
3150;BME280;32503;47.748;8.960;2023-04-25T10:54:53;96453.94;;;14.94;47.88
3150;BME280;32503;47.748;8.960;2023-04-25T10:57:31;96438.06;;;14.71;48.04
3150;BME280;32503;47.748;8.960;2023-04-25T11:00:01;96453.59;;;14.74;47.18
3150;BME280;32503;47.748;8.960;2023-04-25T11:02:32;96453.59;;;14.85;48.02
3150;BME280;32503;47.748;8.960;2023-04-25T11:05:05;96444.97;;;15.08;48.64
3150;BME280;32503;47.748;8.960;2023-04-25T11:07:38;96437.16;;;15.14;47.90
3150;BME280;32503;47.748;8.960;2023-04-25T11:10:07;96442.59;;;15.14;47.67
3150;BME280;32503;47.748;8.960;2023-04-25T11:12:34;96439.53;;;15.08;46.83
3150;BME280;32503;47.748;8.960;2023-04-25T11:15:03;96438.78;;;14.97;47.01
3150;BME280;32503;47.748;8.960;2023-04-25T11:17:30;96445.00;;;14.94;45.72
3150;BME280;32503;47.748;8.960;2023-04-25T11:19:57;96442.69;;;14.85;46.36
3150;BME280;32503;47.748;8.960;2023-04-25T11:22:27;96451.25;;;14.76;46.17
3150;BME280;32503;47.748;8.960;2023-04-25T11:24:54;96448.94;;;14.68;47.50
3150;BME280;32503;47.748;8.960;2023-04-25T11:27:21;96452.81;;;14.45;49.10
3150;BME280;32503;47.748;8.960;2023-04-25T11:29:50;96443.50;;;14.35;51.56
3150;BME280;32503;47.748;8.960;2023-04-25T11:32:18;96443.50;;;14.28;53.25
3150;BME280;32503;47.748;8.960;2023-04-25T11:34:47;96445.06;;;14.29;54.79
3150;BME280;32503;47.748;8.960;2023-04-25T11:37:14;96445.84;;;14.40;54.20
3150;BME280;32503;47.748;8.960;2023-04-25T11:39:46;96449.72;;;14.47;53.43
3150;BME280;32503;47.748;8.960;2023-04-25T11:42:13;96451.66;;;14.57;52.80
3150;BME280;32503;47.748;8.960;2023-04-25T11:44:41;96447.81;;;14.58;52.46
3150;BME280;32503;47.748;8.960;2023-04-25T11:47:08;96462.16;;;14.62;52.05
3150;BME280;32503;47.748;8.960;2023-04-25T11:49:35;96458.25;;;14.34;51.91
3150;BME280;32503;47.748;8.960;2023-04-25T11:52:03;96464.47;;;14.13;52.09
3150;BME280;32503;47.748;8.960;2023-04-25T11:54:36;96462.53;;;13.99;51.99
3150;BME280;32503;47.748;8.960;2023-04-25T11:57:05;96461.72;;;13.95;52.23
3150;BME280;32503;47.748;8.960;2023-04-25T11:59:32;96469.50;;;13.90;52.47
3150;BME280;32503;47.748;8.960;2023-04-25T12:01:59;96471.00;;;13.80;52.24
3150;BME280;32503;47.748;8.960;2023-04-25T12:04:30;96436.78;;;13.43;51.75
3150;BME280;32503;47.748;8.960;2023-04-25T12:06:58;96475.59;;;13.47;53.17
3150;BME280;32503;47.748;8.960;2023-04-25T12:09:32;96462.75;;;13.44;53.63
3150;BME280;32503;47.748;8.960;2023-04-25T12:12:00;96459.25;;;13.36;54.27
3150;BME280;32503;47.748;8.960;2023-04-25T12:14:32;96479.84;;;13.52;53.44
3150;BME280;32503;47.748;8.960;2023-04-25T12:17:02;96483.00;;;13.57;53.73
3150;BME280;32503;47.748;8.960;2023-04-25T12:19:33;96462.03;;;13.61;53.65
3150;BME280;32503;47.748;8.960;2023-04-25T12:22:01;96461.22;;;13.46;52.29
3150;BME280;32503;47.748;8.960;2023-04-25T12:24:32;96471.34;;;13.60;52.71
3150;BME280;32503;47.748;8.960;2023-04-25T12:27:02;96476.41;;;13.73;53.74
3150;BME280;32503;47.748;8.960;2023-04-25T12:29:32;96475.28;;;13.74;53.81
3150;BME280;32503;47.748;8.960;2023-04-25T12:32:00;96465.97;;;13.75;53.12
3150;BME280;32503;47.748;8.960;2023-04-25T12:34:28;96471.78;;;13.77;52.07
3150;BME280;32503;47.748;8.960;2023-04-25T12:36:57;96477.63;;;13.79;51.44
3150;BME280;32503;47.748;8.960;2023-04-25T12:39:25;96472.94;;;13.69;48.37
3150;BME280;32503;47.748;8.960;2023-04-25T12:41:52;96474.91;;;13.86;48.30
3150;BME280;32503;47.748;8.960;2023-04-25T12:44:20;96469.88;;;14.02;48.09
3150;BME280;32503;47.748;8.960;2023-04-25T12:46:49;96457.88;;;14.18;47.61
3150;BME280;32503;47.748;8.960;2023-04-25T12:49:16;96477.72;;;14.44;46.91
3150;BME280;32503;47.748;8.960;2023-04-25T12:51:43;96476.91;;;14.57;46.47
3150;BME280;32503;47.748;8.960;2023-04-25T12:54:10;96488.97;;;14.82;45.72
3150;BME280;32503;47.748;8.960;2023-04-25T12:56:38;96476.88;;;15.08;45.81
3150;BME280;32503;47.748;8.960;2023-04-25T12:59:05;96485.34;;;15.28;44.29
3150;BME280;32503;47.748;8.960;2023-04-25T13:01:32;96489.69;;;15.14;43.66
3150;BME280;32503;47.748;8.960;2023-04-25T13:04:01;96487.72;;;15.15;44.11
3150;BME280;32503;47.748;8.960;2023-04-25T13:06:28;96486.97;;;15.11;43.45
3150;BME280;32503;47.748;8.960;2023-04-25T13:08:55;96491.22;;;15.19;42.89
3150;BME280;32503;47.748;8.960;2023-04-25T13:11:22;96476.38;;;15.38;43.33
3150;BME280;32503;47.748;8.960;2023-04-25T13:13:49;96465.06;;;15.47;43.10
3150;BME280;32503;47.748;8.960;2023-04-25T13:16:16;96482.78;;;15.91;43.53
3150;BME280;32503;47.748;8.960;2023-04-25T13:18:46;96490.47;;;16.07;43.18